Main page
METAR-TAF:

METAR-TAF

Airports :

Hawarden Airport

Hawarden, Wales

latitude: 53-10N, longitude: 002-59W, elevation: 10 m

Current weather observation

The report was made 5 hours and 2 minutes ago, at 18:50 UTC
Wind 9 kt from the West/Southwest
Temperature 8°C
Humidity 76%
Pressure 1000 hPa
Visibility 10 km or more
no clouds below 1500 m and no cumulonimbus

METAR: EGNR 281850Z 24009KT CAVOK 08/04 Q1000

Time: 23:52 (23:52 UTC)

Forecast

The report was made 6 hours and 56 minutes ago, at 16:56 UTC
Forecast valid from 28 at 18 UTC to 28 at 20 UTC
Wind 8 kt from the West/Southwest
Visibility 10 km or more
Few clouds at a height of 2000 ft
Temporary
from 28 at 18 UTC to 28 at 20 UTC
Visibility: 7000 m
rain showers
Probability 30% :
Temporary
from 28 at 18 UTC to 28 at 20 UTC
Wind 15 kt from the Southwest with gusts up to 25 kt
Visibility: 3000 m
heavy rain showers

TAF: EGNR 281656Z 2818/2820 24008KT 9999 FEW020 TEMPO 2818/2820 7000 SHRA PROB30 TEMPO 2818/2820 23015G25KT 3000 +SHRA

Weather observations and forecasts of more than 4000 airports (METAR and TAF reports).

The available stations are represented by yellow and red dots on the map.

Hover mouse over dot to see the name of the station.

Then click to see weather observations and forecasts.

To change the map : click on the green buttons with a black cross to zoom in, on the green button with a dash to zoom out, or on the green arrows for adjacent maps.


METAR-TAF: